Cardoso, Brazil
Current Conditions -  °F | °C
As of 10:00 PM on Wednesday 28 Jan 2015 (Local Time) from SBSR Reporting Station
Thunderstorm Thunderstorm  
Wind Chill: 81°   Ceiling: 3000
Heat Index: 83°   Visibility: 6mi
Dew Point: 66°   Wind: 7mph
Humidity: 61%   Direction: 330°NNW
Pressure: NA   Gusts: NA
Location:  20.08°S, 49.91°W
Report Text: SBSR 290000Z 33006KT 9999 VCTS BKN030 FEW035CB BKN070 27/19 Q1016
Loading
Personal Weather Stations






























Interactive Weather Map New forecast layout! Learn more

10-Day Weather Forecast

Advertisements
Track Severe Weather on mobile